createdAt,value
2022-12-20T00:04:46.185Z,-3.26
2022-12-20T00:10:11.087Z,-3.19
2022-12-20T00:15:34.509Z,-3.25
2022-12-20T00:21:01.577Z,-3.30
2022-12-20T00:26:44.947Z,-3.22
2022-12-20T00:32:07.015Z,-3.28
2022-12-20T00:37:29.230Z,-3.38
2022-12-20T00:42:51.832Z,-3.27
2022-12-20T00:48:13.820Z,-3.27
2022-12-20T00:53:37.496Z,-3.25
2022-12-20T00:59:00.793Z,-3.39
2022-12-20T01:04:23.293Z,-3.24
2022-12-20T01:09:45.551Z,-3.30
2022-12-20T01:15:08.906Z,-3.27
2022-12-20T01:20:31.855Z,-3.36
2022-12-20T01:25:54.224Z,-3.32
2022-12-20T01:31:19.097Z,-3.30
2022-12-20T01:36:41.581Z,-3.32
2022-12-20T01:42:04.432Z,-3.28
2022-12-20T01:47:27.683Z,-3.25
2022-12-20T01:52:50.456Z,-3.27
2022-12-20T01:58:15.428Z,-3.40
2022-12-20T02:03:38.084Z,-3.32
2022-12-20T02:09:03.080Z,-3.28
2022-12-20T02:14:43.550Z,-3.27
2022-12-20T02:20:42.093Z,-3.27
2022-12-20T02:26:38.483Z,-3.32
2022-12-20T02:32:15.266Z,-3.51
2022-12-20T02:37:37.713Z,-3.48
2022-12-20T02:43:04.128Z,-3.62
2022-12-20T02:48:31.851Z,-3.58
2022-12-20T02:53:55.026Z,-3.58
2022-12-20T02:59:35.442Z,-3.51
2022-12-20T03:05:00.748Z,-3.51
2022-12-20T03:10:24.708Z,-3.53
2022-12-20T03:15:47.188Z,-3.37
2022-12-20T03:21:12.737Z,-3.54
2022-12-20T03:26:34.958Z,-3.53
2022-12-20T03:31:57.473Z,-3.44
2022-12-20T03:37:19.778Z,-3.42
2022-12-20T03:42:42.744Z,-3.22
2022-12-20T03:48:05.223Z,-3.19
2022-12-20T03:53:34.530Z,-3.34
2022-12-20T03:59:03.012Z,-3.28
2022-12-20T04:04:26.392Z,-3.25
2022-12-20T04:09:48.886Z,-3.32
2022-12-20T04:15:12.241Z,-3.10
2022-12-20T04:20:39.722Z,-3.16
2022-12-20T04:26:12.082Z,-3.21
2022-12-20T04:31:34.839Z,-3.12
2022-12-20T04:36:57.039Z,-3.02
2022-12-20T04:42:29.901Z,-3.03
2022-12-20T04:47:52.993Z,-3.00
2022-12-20T04:53:40.397Z,-2.97
2022-12-20T04:59:04.123Z,-2.99
2022-12-20T05:04:29.086Z,-3.06
2022-12-20T05:09:55.751Z,-2.90
2022-12-20T05:15:18.363Z,-2.88
2022-12-20T05:20:40.146Z,-3.01
2022-12-20T05:26:18.232Z,-2.89
2022-12-20T05:31:41.388Z,-2.87
2022-12-20T05:37:04.173Z,-2.86
2022-12-20T05:42:29.796Z,-2.84
2022-12-20T05:47:51.893Z,-2.84
2022-12-20T05:53:16.207Z,-2.78
2022-12-20T05:58:44.865Z,-2.74
2022-12-20T06:04:07.242Z,-2.73
2022-12-20T06:09:31.090Z,-2.74
2022-12-20T06:15:01.538Z,-2.72
2022-12-20T06:20:25.795Z,-2.64
2022-12-20T06:25:49.207Z,-2.55
2022-12-20T06:31:12.078Z,-2.57
2022-12-20T06:36:41.425Z,-2.59
2022-12-20T06:42:09.114Z,-2.61
2022-12-20T06:47:33.747Z,-2.56
2022-12-20T06:52:57.239Z,-2.45
2022-12-20T06:58:20.988Z,-2.47
2022-12-20T07:03:44.207Z,-2.49
2022-12-20T07:09:09.768Z,-2.34
2022-12-20T07:14:31.967Z,-2.43
2022-12-20T07:19:54.275Z,-2.29
2022-12-20T07:25:18.940Z,-2.44
2022-12-20T07:30:42.284Z,-2.34
2022-12-20T07:36:11.348Z,-2.25
2022-12-20T07:41:38.065Z,-2.38
2022-12-20T07:47:03.352Z,-2.28
2022-12-20T07:52:31.744Z,-2.35
2022-12-20T07:58:01.350Z,-2.21
2022-12-20T08:03:32.376Z,-2.18
2022-12-20T08:08:59.914Z,-2.22
2022-12-20T08:14:25.008Z,-2.16
2022-12-20T08:19:48.254Z,-2.08
2022-12-20T08:25:12.485Z,-2.27
2022-12-20T08:30:34.735Z,-2.30
2022-12-20T08:36:03.726Z,-2.26
2022-12-20T08:41:26.004Z,-2.28
2022-12-20T08:46:50.296Z,-2.36
2022-12-20T08:52:12.926Z,-2.36
2022-12-20T08:57:35.795Z,-2.31
2022-12-20T09:03:00.968Z,-2.33
2022-12-20T09:08:23.664Z,-2.39
2022-12-20T09:13:48.114Z,-2.41
2022-12-20T09:19:14.735Z,-2.40
2022-12-20T09:24:38.733Z,-2.45
2022-12-20T09:30:01.231Z,-2.48
2022-12-20T09:35:23.814Z,-2.51
2022-12-20T09:40:49.004Z,-2.50
2022-12-20T09:46:15.972Z,-2.61
2022-12-20T09:51:50.249Z,-2.60
2022-12-20T09:57:50.356Z,-2.68
2022-12-20T10:03:34.296Z,-2.72
2022-12-20T10:09:25.003Z,-2.77
2022-12-20T10:15:15.424Z,-2.75
2022-12-20T10:21:16.797Z,-2.84
2022-12-20T10:26:39.254Z,-3.00
2022-12-20T10:32:03.144Z,-3.00
2022-12-20T10:37:25.222Z,-3.12
2022-12-20T10:42:47.813Z,-3.09
2022-12-20T10:48:32.155Z,-3.05
2022-12-20T10:54:20.832Z,-3.10
2022-12-20T11:00:04.582Z,-3.08
2022-12-20T11:05:28.333Z,-3.19
2022-12-20T11:10:52.304Z,-3.25
2022-12-20T11:16:28.364Z,-3.16
2022-12-20T11:22:13.205Z,-3.22
2022-12-20T11:27:52.673Z,-3.28
2022-12-20T11:33:32.944Z,-3.36
2022-12-20T11:39:25.751Z,-3.46
2022-12-20T11:45:08.452Z,-3.48
2022-12-20T11:50:37.412Z,-3.58
2022-12-20T11:56:09.415Z,-3.64
2022-12-20T12:02:03.597Z,-3.61
2022-12-20T12:07:31.512Z,-3.68
2022-12-20T12:13:27.891Z,-3.73
2022-12-20T12:18:50.118Z,-3.83
2022-12-20T12:24:21.211Z,-3.68
2022-12-20T12:29:46.227Z,-3.73
2022-12-20T12:35:50.154Z,-3.87
2022-12-20T12:41:18.206Z,-3.75
2022-12-20T12:46:41.579Z,-3.91
2022-12-20T12:52:07.666Z,-3.81
2022-12-20T12:57:59.675Z,-3.81
2022-12-20T13:03:50.251Z,-3.84
2022-12-20T13:09:36.930Z,-3.87
2022-12-20T13:15:22.489Z,-4.07
2022-12-20T13:21:30.212Z,-3.93
2022-12-20T13:26:54.205Z,-4.00
2022-12-20T13:32:51.692Z,-4.04
2022-12-20T13:38:48.596Z,-4.11
2022-12-20T13:44:25.025Z,-4.34
2022-12-20T13:49:48.198Z,-4.37
2022-12-20T13:55:24.301Z,-4.50
2022-12-20T14:00:48.312Z,-4.41
2022-12-20T14:06:12.514Z,-4.40
2022-12-20T14:11:46.992Z,-4.57
2022-12-20T14:17:31.760Z,-4.48
2022-12-20T14:23:12.117Z,-4.55
2022-12-20T14:28:38.661Z,-4.58
2022-12-20T14:34:13.464Z,-4.67
2022-12-20T14:39:38.521Z,-4.92
2022-12-20T14:45:17.783Z,-4.82
2022-12-20T14:50:57.695Z,-5.05
2022-12-20T14:56:28.059Z,-5.03
2022-12-20T15:01:54.582Z,-5.06
2022-12-20T15:07:37.171Z,-5.36
2022-12-20T15:13:02.921Z,-5.22
2022-12-20T15:18:26.373Z,-5.35
2022-12-20T15:29:41.433Z,-5.36
2022-12-20T15:35:04.558Z,-5.21
2022-12-20T15:40:26.673Z,-5.45
2022-12-20T15:45:53.403Z,-5.52
2022-12-20T15:51:22.504Z,-5.60
2022-12-20T15:56:44.419Z,-5.95
2022-12-20T16:02:28.208Z,-6.36
2022-12-20T16:07:50.262Z,-6.54
2022-12-20T16:13:23.677Z,-6.82
2022-12-20T16:18:46.110Z,-7.31
2022-12-20T16:24:34.057Z,-7.62
2022-12-20T16:29:58.276Z,-7.99
2022-12-20T16:35:28.685Z,-8.03
2022-12-20T16:40:51.017Z,-8.29
2022-12-20T16:46:15.154Z,-8.30
2022-12-20T16:51:45.116Z,-8.43
2022-12-20T16:57:06.994Z,-8.52
2022-12-20T17:02:33.220Z,-8.69
2022-12-20T17:07:55.696Z,-8.97
2022-12-20T17:13:17.362Z,-9.15
2022-12-20T17:18:41.344Z,-9.26
2022-12-20T17:24:19.728Z,-9.21
2022-12-20T17:29:43.012Z,-9.49
2022-12-20T17:35:24.891Z,-9.34
2022-12-20T17:40:47.692Z,-9.63
2022-12-20T17:46:10.157Z,-9.49
2022-12-20T17:51:32.591Z,-9.66
2022-12-20T17:56:57.693Z,-9.64
2022-12-20T18:02:25.806Z,-9.64
2022-12-20T18:07:55.358Z,-9.86
2022-12-20T18:13:18.664Z,-9.85
2022-12-20T18:18:42.031Z,-10.15
2022-12-20T18:29:40.304Z,-9.95
2022-12-20T18:35:02.445Z,-10.12
2022-12-20T18:40:26.219Z,-10.07
2022-12-20T18:45:48.463Z,-9.84
2022-12-20T18:51:16.472Z,-9.69
2022-12-20T18:56:39.454Z,-9.59
2022-12-20T19:02:01.675Z,-9.46
2022-12-20T19:07:23.561Z,-9.46
2022-12-20T19:12:45.706Z,-9.27
2022-12-20T19:18:07.630Z,-9.03
2022-12-20T19:23:30.503Z,-9.16
2022-12-20T19:28:52.885Z,-9.27
2022-12-20T19:34:18.678Z,-9.11
2022-12-20T19:39:40.614Z,-8.88
2022-12-20T19:45:04.023Z,-8.84
2022-12-20T19:50:28.208Z,-8.91
2022-12-20T19:55:54.145Z,-8.63
2022-12-20T20:01:18.440Z,-8.55
2022-12-20T20:06:43.330Z,-8.62
2022-12-20T20:12:06.076Z,-8.67
2022-12-20T20:17:30.881Z,-8.59
2022-12-20T20:22:55.940Z,-8.27
2022-12-20T20:28:18.856Z,-8.19
2022-12-20T20:33:40.794Z,-8.14
2022-12-20T20:39:02.770Z,-8.17
2022-12-20T20:44:24.494Z,-8.23
2022-12-20T20:49:47.709Z,-8.43
2022-12-20T20:55:10.812Z,-8.51
2022-12-20T21:00:33.417Z,-8.49
2022-12-20T21:11:38.428Z,-8.38
2022-12-20T21:17:00.842Z,-8.38
2022-12-20T21:22:22.722Z,-8.33
2022-12-20T21:27:44.570Z,-8.07
2022-12-20T21:33:07.063Z,-7.98
2022-12-20T21:38:29.557Z,-8.10
2022-12-20T21:43:55.223Z,-8.05
2022-12-20T21:56:28.773Z,-8.12
2022-12-20T22:01:51.050Z,-8.07
2022-12-20T22:07:13.298Z,-8.19
2022-12-20T22:12:34.913Z,-8.05
2022-12-20T22:17:57.083Z,-7.98
2022-12-20T22:23:19.243Z,-7.90
2022-12-20T22:28:47.491Z,-8.04
2022-12-20T22:34:09.913Z,-7.96
2022-12-20T22:39:34.833Z,-7.90
2022-12-20T22:44:57.201Z,-7.63
2022-12-20T22:50:21.423Z,-7.52
2022-12-20T22:55:43.441Z,-7.34
2022-12-20T23:01:12.455Z,-7.44
2022-12-20T23:06:34.684Z,-7.44
2022-12-20T23:12:17.303Z,-7.32
2022-12-20T23:17:39.285Z,-7.40
2022-12-20T23:23:01.860Z,-7.49
2022-12-20T23:28:29.820Z,-7.45
2022-12-20T23:33:51.963Z,-7.56
2022-12-20T23:39:14.707Z,-7.62
2022-12-20T23:44:38.305Z,-7.60
2022-12-20T23:50:08.725Z,-7.48
2022-12-20T23:55:31.406Z,-7.48
